Airfield :
LOGIN :

Register | Disclaimer

   EN    FR    IT 

 










Legend :    VFR   Marginal VFR   IFR   Intensive IFR   Very Intensive IFR
Visi :
Ceiling :
>= 8 km
>= 3000ft
5 to 8 km
1000 to 3000 ft
1500m to 5 km
500 to 1000 ft
800 to 1500m
200 to 500 ft
< 800m
< 200 ft
Symbols :   Thunderstorms  Fog  Heavy snow  Heavy precipitations  Wind > 20 kt
SIGMETs :     Misc.  Thunderstorms  Icing  Turbulence  Mountain Waves  Volcanic Ashes






- Airport Elevation : 247 ft
- IATA code : BLL


EKBI - Billund

CURRENT METAR :
  • 221350Z AUTO 28011KT 9999 SCT045/// 17/07 Q1015

EXPIRED METARs :
  • 221320Z AUTO 28009KT 240V310 9999 FEW042/// 16/06 Q1015
  • 221250Z AUTO 27009KT 240V300 9999 FEW042/// BKN056/// 18/08 Q1015
  • 221220Z AUTO 25008KT 220V280 9999 BKN041/// 17/07 Q1015
  • 221150Z AUTO 25009KT 210V310 9999 FEW054/// 17/07 Q1015
  • 221120Z AUTO 28008KT 250V310 9999 FEW037/// 16/07 Q1015

TAF TAF EKBI
Valid from the 22 at 12:00 until the 23 at 12:00 UTC


221108Z 2212/2312 28010KT 9999 BKN030
BECMG 2220/2222 12008KT
BECMG 2307/2309 14018KT



MET'MAP, your aeronautical weather chart ! - Copyright ORBIFLY December 2007 - Disclaimer

ORBIFLY MET'MAP TEAM :

Programming & Development : Alexandra Zaïnal
Original concept : Baudouin d'Aumeries
Technical & hardware support : Manuel Goepfert
Assistance : Marc-Olivier Méhu

Contact : metmap@orbifly.com




SOURCES & CREDITS :

   NOAA